sensor_id;sensor_type;location;lat;lon;timestamp;P1;durP1;ratioP1;P2;durP2;ratioP2
9304;SDS011;4690;52.422;13.486;2023-03-11T00:05:50;37.93;;;20.13;;
9304;SDS011;4690;52.422;13.486;2023-03-11T00:08:18;37.90;;;21.40;;
9304;SDS011;4690;52.422;13.486;2023-03-11T00:10:47;44.17;;;21.83;;
9304;SDS011;4690;52.422;13.486;2023-03-11T00:13:22;48.10;;;23.23;;
9304;SDS011;4690;52.422;13.486;2023-03-11T00:15:49;31.57;;;19.70;;
9304;SDS011;4690;52.422;13.486;2023-03-11T00:18:19;53.07;;;22.20;;
9304;SDS011;4690;52.422;13.486;2023-03-11T00:20:50;74.07;;;27.43;;
9304;SDS011;4690;52.422;13.486;2023-03-11T00:23:19;39.83;;;21.60;;
9304;SDS011;4690;52.422;13.486;2023-03-11T00:25:45;45.40;;;23.37;;
9304;SDS011;4690;52.422;13.486;2023-03-11T00:28:12;26.77;;;19.53;;
9304;SDS011;4690;52.422;13.486;2023-03-11T00:30:39;41.37;;;21.20;;
9304;SDS011;4690;52.422;13.486;2023-03-11T00:33:09;28.83;;;18.47;;
9304;SDS011;4690;52.422;13.486;2023-03-11T00:35:37;20.67;;;17.27;;
9304;SDS011;4690;52.422;13.486;2023-03-11T00:38:05;27.37;;;18.80;;
9304;SDS011;4690;52.422;13.486;2023-03-11T00:40:35;32.73;;;19.70;;
9304;SDS011;4690;52.422;13.486;2023-03-11T00:43:02;36.63;;;20.80;;
9304;SDS011;4690;52.422;13.486;2023-03-11T00:45:28;31.83;;;18.43;;
9304;SDS011;4690;52.422;13.486;2023-03-11T00:47:54;46.97;;;21.20;;
9304;SDS011;4690;52.422;13.486;2023-03-11T00:50:21;27.50;;;18.07;;
9304;SDS011;4690;52.422;13.486;2023-03-11T00:52:51;27.20;;;17.87;;
9304;SDS011;4690;52.422;13.486;2023-03-11T00:55:28;26.37;;;17.77;;
9304;SDS011;4690;52.422;13.486;2023-03-11T00:57:58;47.27;;;22.53;;
9304;SDS011;4690;52.422;13.486;2023-03-11T01:00:28;23.80;;;16.67;;
9304;SDS011;4690;52.422;13.486;2023-03-11T01:02:55;32.77;;;20.67;;
9304;SDS011;4690;52.422;13.486;2023-03-11T01:05:22;30.20;;;19.07;;
9304;SDS011;4690;52.422;13.486;2023-03-11T01:07:52;30.37;;;18.30;;
9304;SDS011;4690;52.422;13.486;2023-03-11T01:10:18;35.83;;;19.90;;
9304;SDS011;4690;52.422;13.486;2023-03-11T01:12:44;19.77;;;16.77;;
9304;SDS011;4690;52.422;13.486;2023-03-11T01:15:14;24.60;;;17.73;;
9304;SDS011;4690;52.422;13.486;2023-03-11T01:17:48;66.50;;;27.77;;
9304;SDS011;4690;52.422;13.486;2023-03-11T01:20:14;35.73;;;22.07;;
9304;SDS011;4690;52.422;13.486;2023-03-11T01:22:40;53.80;;;27.40;;
9304;SDS011;4690;52.422;13.486;2023-03-11T01:25:06;39.97;;;23.77;;
9304;SDS011;4690;52.422;13.486;2023-03-11T01:27:37;42.67;;;25.73;;
9304;SDS011;4690;52.422;13.486;2023-03-11T01:30:03;67.87;;;28.73;;
9304;SDS011;4690;52.422;13.486;2023-03-11T01:32:29;39.80;;;25.30;;
9304;SDS011;4690;52.422;13.486;2023-03-11T01:34:55;38.13;;;25.67;;
9304;SDS011;4690;52.422;13.486;2023-03-11T01:37:20;52.77;;;28.07;;
9304;SDS011;4690;52.422;13.486;2023-03-11T01:39:46;71.53;;;31.73;;
9304;SDS011;4690;52.422;13.486;2023-03-11T01:42:12;36.23;;;25.23;;
9304;SDS011;4690;52.422;13.486;2023-03-11T01:44:38;57.50;;;30.20;;
9304;SDS011;4690;52.422;13.486;2023-03-11T01:49:29;75.23;;;30.80;;
9304;SDS011;4690;52.422;13.486;2023-03-11T01:52:01;49.77;;;28.23;;
9304;SDS011;4690;52.422;13.486;2023-03-11T01:54:38;67.57;;;28.83;;
9304;SDS011;4690;52.422;13.486;2023-03-11T01:57:06;45.63;;;24.40;;
9304;SDS011;4690;52.422;13.486;2023-03-11T01:59:38;41.87;;;23.83;;
9304;SDS011;4690;52.422;13.486;2023-03-11T02:02:45;33.97;;;20.37;;
9304;SDS011;4690;52.422;13.486;2023-03-11T02:05:12;27.63;;;17.37;;
9304;SDS011;4690;52.422;13.486;2023-03-11T02:07:38;35.43;;;19.07;;
9304;SDS011;4690;52.422;13.486;2023-03-11T02:10:05;21.83;;;14.60;;
9304;SDS011;4690;52.422;13.486;2023-03-11T02:12:33;31.40;;;16.07;;
9304;SDS011;4690;52.422;13.486;2023-03-11T02:15:01;22.50;;;13.20;;
9304;SDS011;4690;52.422;13.486;2023-03-11T02:17:29;17.07;;;10.93;;
9304;SDS011;4690;52.422;13.486;2023-03-11T02:19:58;18.23;;;10.00;;
9304;SDS011;4690;52.422;13.486;2023-03-11T02:22:56;9.00;;;7.50;;
9304;SDS011;4690;52.422;13.486;2023-03-11T02:28:25;10.03;;;7.13;;
9304;SDS011;4690;52.422;13.486;2023-03-11T02:30:54;9.33;;;6.67;;
9304;SDS011;4690;52.422;13.486;2023-03-11T02:33:22;8.40;;;5.37;;
9304;SDS011;4690;52.422;13.486;2023-03-11T02:35:53;7.07;;;5.87;;
9304;SDS011;4690;52.422;13.486;2023-03-11T02:38:19;10.47;;;5.97;;
9304;SDS011;4690;52.422;13.486;2023-03-11T02:43:18;5.73;;;4.60;;
9304;SDS011;4690;52.422;13.486;2023-03-11T02:45:51;11.37;;;6.00;;
9304;SDS011;4690;52.422;13.486;2023-03-11T02:48:19;8.93;;;5.33;;
9304;SDS011;4690;52.422;13.486;2023-03-11T02:50:47;7.43;;;5.60;;
9304;SDS011;4690;52.422;13.486;2023-03-11T02:53:14;6.73;;;5.43;;
9304;SDS011;4690;52.422;13.486;2023-03-11T02:55:40;8.20;;;5.73;;
9304;SDS011;4690;52.422;13.486;2023-03-11T02:58:06;6.87;;;5.73;;
9304;SDS011;4690;52.422;13.486;2023-03-11T03:00:32;8.23;;;5.53;;
9304;SDS011;4690;52.422;13.486;2023-03-11T03:02:58;7.27;;;5.90;;
9304;SDS011;4690;52.422;13.486;2023-03-11T03:05:24;6.37;;;5.40;;
9304;SDS011;4690;52.422;13.486;2023-03-11T03:07:50;8.33;;;6.27;;
9304;SDS011;4690;52.422;13.486;2023-03-11T03:10:17;7.53;;;5.90;;
9304;SDS011;4690;52.422;13.486;2023-03-11T03:12:45;9.70;;;6.17;;
9304;SDS011;4690;52.422;13.486;2023-03-11T03:15:11;9.20;;;6.20;;
9304;SDS011;4690;52.422;13.486;2023-03-11T03:17:39;5.97;;;5.23;;
9304;SDS011;4690;52.422;13.486;2023-03-11T03:20:06;10.80;;;6.37;;
9304;SDS011;4690;52.422;13.486;2023-03-11T03:22:35;7.40;;;6.20;;
9304;SDS011;4690;52.422;13.486;2023-03-11T03:25:03;12.20;;;7.37;;
9304;SDS011;4690;52.422;13.486;2023-03-11T03:27:30;11.60;;;7.53;;
9304;SDS011;4690;52.422;13.486;2023-03-11T03:29:57;11.03;;;7.00;;
9304;SDS011;4690;52.422;13.486;2023-03-11T03:32:23;10.03;;;7.60;;
9304;SDS011;4690;52.422;13.486;2023-03-11T03:34:49;9.63;;;7.50;;
9304;SDS011;4690;52.422;13.486;2023-03-11T03:37:15;11.73;;;8.33;;
9304;SDS011;4690;52.422;13.486;2023-03-11T03:39:40;14.53;;;9.47;;
9304;SDS011;4690;52.422;13.486;2023-03-11T03:42:06;11.00;;;8.20;;
9304;SDS011;4690;52.422;13.486;2023-03-11T03:44:32;10.70;;;8.07;;
9304;SDS011;4690;52.422;13.486;2023-03-11T03:46:57;12.80;;;8.50;;
9304;SDS011;4690;52.422;13.486;2023-03-11T03:49:23;11.07;;;7.77;;
9304;SDS011;4690;52.422;13.486;2023-03-11T03:51:49;11.90;;;7.60;;
9304;SDS011;4690;52.422;13.486;2023-03-11T03:54:15;10.07;;;8.07;;
9304;SDS011;4690;52.422;13.486;2023-03-11T03:56:40;10.10;;;7.70;;
9304;SDS011;4690;52.422;13.486;2023-03-11T03:59:06;11.47;;;8.57;;
9304;SDS011;4690;52.422;13.486;2023-03-11T04:01:32;14.93;;;9.23;;
9304;SDS011;4690;52.422;13.486;2023-03-11T04:03:57;11.97;;;8.57;;
9304;SDS011;4690;52.422;13.486;2023-03-11T04:06:24;12.70;;;9.30;;
9304;SDS011;4690;52.422;13.486;2023-03-11T04:08:52;15.90;;;10.20;;
9304;SDS011;4690;52.422;13.486;2023-03-11T04:11:19;14.20;;;9.93;;
9304;SDS011;4690;52.422;13.486;2023-03-11T04:13:45;11.93;;;9.17;;
9304;SDS011;4690;52.422;13.486;2023-03-11T04:16:15;12.33;;;8.60;;
9304;SDS011;4690;52.422;13.486;2023-03-11T04:18:45;14.43;;;9.83;;
9304;SDS011;4690;52.422;13.486;2023-03-11T04:21:12;15.80;;;9.43;;
9304;SDS011;4690;52.422;13.486;2023-03-11T04:23:37;14.97;;;10.50;;
9304;SDS011;4690;52.422;13.486;2023-03-11T04:26:04;12.17;;;8.77;;
9304;SDS011;4690;52.422;13.486;2023-03-11T04:28:29;10.43;;;9.10;;
9304;SDS011;4690;52.422;13.486;2023-03-11T04:30:56;19.17;;;11.60;;
9304;SDS011;4690;52.422;13.486;2023-03-11T04:33:21;11.80;;;9.63;;
9304;SDS011;4690;52.422;13.486;2023-03-11T04:35:47;20.47;;;11.17;;
9304;SDS011;4690;52.422;13.486;2023-03-11T04:38:13;17.70;;;11.03;;
9304;SDS011;4690;52.422;13.486;2023-03-11T04:40:39;18.97;;;11.77;;
9304;SDS011;4690;52.422;13.486;2023-03-11T04:43:05;17.73;;;11.60;;
9304;SDS011;4690;52.422;13.486;2023-03-11T04:45:31;16.70;;;11.10;;
9304;SDS011;4690;52.422;13.486;2023-03-11T04:47:57;20.83;;;12.53;;
9304;SDS011;4690;52.422;13.486;2023-03-11T04:50:23;20.60;;;13.13;;
9304;SDS011;4690;52.422;13.486;2023-03-11T04:52:49;17.60;;;11.67;;
9304;SDS011;4690;52.422;13.486;2023-03-11T04:55:15;17.13;;;11.77;;
9304;SDS011;4690;52.422;13.486;2023-03-11T04:57:41;15.90;;;10.97;;
9304;SDS011;4690;52.422;13.486;2023-03-11T05:00:08;14.67;;;10.13;;
9304;SDS011;4690;52.422;13.486;2023-03-11T05:02:40;12.80;;;10.07;;
9304;SDS011;4690;52.422;13.486;2023-03-11T05:05:07;17.40;;;11.17;;
9304;SDS011;4690;52.422;13.486;2023-03-11T05:07:34;14.00;;;9.93;;
9304;SDS011;4690;52.422;13.486;2023-03-11T05:10:01;15.17;;;10.00;;
9304;SDS011;4690;52.422;13.486;2023-03-11T05:12:29;13.10;;;9.10;;
9304;SDS011;4690;52.422;13.486;2023-03-11T05:14:54;9.40;;;7.97;;
9304;SDS011;4690;52.422;13.486;2023-03-11T05:17:20;10.60;;;8.27;;
9304;SDS011;4690;52.422;13.486;2023-03-11T05:19:46;17.47;;;9.30;;
9304;SDS011;4690;52.422;13.486;2023-03-11T05:22:12;10.20;;;7.83;;
9304;SDS011;4690;52.422;13.486;2023-03-11T05:24:38;10.63;;;7.90;;
9304;SDS011;4690;52.422;13.486;2023-03-11T05:27:04;14.03;;;9.33;;
9304;SDS011;4690;52.422;13.486;2023-03-11T05:29:30;12.37;;;8.73;;
9304;SDS011;4690;52.422;13.486;2023-03-11T05:31:57;11.30;;;8.60;;
9304;SDS011;4690;52.422;13.486;2023-03-11T05:34:22;11.20;;;9.30;;
9304;SDS011;4690;52.422;13.486;2023-03-11T05:36:48;8.07;;;7.27;;
9304;SDS011;4690;52.422;13.486;2023-03-11T05:39:14;10.07;;;8.30;;
9304;SDS011;4690;52.422;13.486;2023-03-11T05:41:40;15.70;;;9.40;;
9304;SDS011;4690;52.422;13.486;2023-03-11T05:44:06;12.33;;;8.20;;
9304;SDS011;4690;52.422;13.486;2023-03-11T05:46:31;9.77;;;7.87;;
9304;SDS011;4690;52.422;13.486;2023-03-11T05:48:58;10.27;;;8.10;;
9304;SDS011;4690;52.422;13.486;2023-03-11T05:51:24;11.87;;;8.67;;
9304;SDS011;4690;52.422;13.486;2023-03-11T05:53:50;11.13;;;8.47;;
9304;SDS011;4690;52.422;13.486;2023-03-11T05:56:17;8.87;;;7.97;;
9304;SDS011;4690;52.422;13.486;2023-03-11T05:58:47;14.20;;;9.17;;
9304;SDS011;4690;52.422;13.486;2023-03-11T06:01:15;14.43;;;9.90;;
9304;SDS011;4690;52.422;13.486;2023-03-11T06:03:44;14.73;;;9.90;;
9304;SDS011;4690;52.422;13.486;2023-03-11T06:06:11;13.97;;;9.80;;
9304;SDS011;4690;52.422;13.486;2023-03-11T06:08:37;13.30;;;10.47;;
9304;SDS011;4690;52.422;13.486;2023-03-11T06:11:07;19.30;;;11.43;;
9304;SDS011;4690;52.422;13.486;2023-03-11T06:13:35;13.63;;;10.43;;
9304;SDS011;4690;52.422;13.486;2023-03-11T06:16:02;16.70;;;10.83;;
9304;SDS011;4690;52.422;13.486;2023-03-11T06:18:29;16.17;;;11.17;;
9304;SDS011;4690;52.422;13.486;2023-03-11T06:20:57;12.47;;;10.07;;
9304;SDS011;4690;52.422;13.486;2023-03-11T06:23:24;17.27;;;11.20;;
9304;SDS011;4690;52.422;13.486;2023-03-11T06:25:58;18.37;;;11.47;;
9304;SDS011;4690;52.422;13.486;2023-03-11T06:28:28;12.57;;;10.33;;
9304;SDS011;4690;52.422;13.486;2023-03-11T06:30:54;26.63;;;13.53;;
9304;SDS011;4690;52.422;13.486;2023-03-11T06:33:23;19.73;;;11.27;;
9304;SDS011;4690;52.422;13.486;2023-03-11T06:35:56;19.63;;;11.37;;
9304;SDS011;4690;52.422;13.486;2023-03-11T06:38:27;12.07;;;10.20;;
9304;SDS011;4690;52.422;13.486;2023-03-11T06:40:53;16.33;;;12.43;;
9304;SDS011;4690;52.422;13.486;2023-03-11T06:43:23;22.63;;;14.07;;
9304;SDS011;4690;52.422;13.486;2023-03-11T06:45:49;24.33;;;14.87;;
9304;SDS011;4690;52.422;13.486;2023-03-11T06:48:14;19.50;;;12.70;;
9304;SDS011;4690;52.422;13.486;2023-03-11T06:50:40;16.57;;;11.83;;
9304;SDS011;4690;52.422;13.486;2023-03-11T06:53:06;15.13;;;12.03;;
9304;SDS011;4690;52.422;13.486;2023-03-11T06:55:32;15.70;;;12.23;;
9304;SDS011;4690;52.422;13.486;2023-03-11T06:57:59;23.53;;;14.67;;
9304;SDS011;4690;52.422;13.486;2023-03-11T07:00:26;15.80;;;12.17;;
9304;SDS011;4690;52.422;13.486;2023-03-11T07:02:52;18.23;;;13.70;;
9304;SDS011;4690;52.422;13.486;2023-03-11T07:05:18;18.63;;;13.17;;
9304;SDS011;4690;52.422;13.486;2023-03-11T07:07:44;18.67;;;13.80;;
9304;SDS011;4690;52.422;13.486;2023-03-11T07:10:10;18.23;;;12.83;;
9304;SDS011;4690;52.422;13.486;2023-03-11T07:12:36;23.63;;;14.57;;
9304;SDS011;4690;52.422;13.486;2023-03-11T07:15:02;17.23;;;13.33;;
9304;SDS011;4690;52.422;13.486;2023-03-11T07:17:28;16.03;;;12.50;;
9304;SDS011;4690;52.422;13.486;2023-03-11T07:19:54;21.53;;;13.80;;
9304;SDS011;4690;52.422;13.486;2023-03-11T07:22:20;16.00;;;11.97;;
9304;SDS011;4690;52.422;13.486;2023-03-11T07:24:46;16.80;;;12.50;;
9304;SDS011;4690;52.422;13.486;2023-03-11T07:27:13;15.03;;;11.67;;
9304;SDS011;4690;52.422;13.486;2023-03-11T07:29:39;16.03;;;12.07;;
9304;SDS011;4690;52.422;13.486;2023-03-11T07:32:06;22.77;;;13.03;;
9304;SDS011;4690;52.422;13.486;2023-03-11T07:34:32;15.17;;;11.87;;
9304;SDS011;4690;52.422;13.486;2023-03-11T07:36:58;16.53;;;12.00;;
9304;SDS011;4690;52.422;13.486;2023-03-11T07:39:24;18.50;;;12.37;;
9304;SDS011;4690;52.422;13.486;2023-03-11T07:41:50;15.30;;;11.23;;
9304;SDS011;4690;52.422;13.486;2023-03-11T07:44:16;13.97;;;11.50;;
9304;SDS011;4690;52.422;13.486;2023-03-11T07:46:43;14.07;;;10.93;;
9304;SDS011;4690;52.422;13.486;2023-03-11T07:49:09;17.67;;;12.97;;
9304;SDS011;4690;52.422;13.486;2023-03-11T07:51:37;15.23;;;11.13;;
9304;SDS011;4690;52.422;13.486;2023-03-11T07:54:08;17.23;;;11.53;;
9304;SDS011;4690;52.422;13.486;2023-03-11T07:56:36;14.90;;;12.13;;
9304;SDS011;4690;52.422;13.486;2023-03-11T07:59:02;15.17;;;11.77;;
9304;SDS011;4690;52.422;13.486;2023-03-11T08:01:30;15.93;;;11.57;;
9304;SDS011;4690;52.422;13.486;2023-03-11T08:04:01;18.53;;;12.50;;
9304;SDS011;4690;52.422;13.486;2023-03-11T08:06:32;12.00;;;10.70;;
9304;SDS011;4690;52.422;13.486;2023-03-11T08:09:02;14.90;;;10.40;;
9304;SDS011;4690;52.422;13.486;2023-03-11T08:11:33;13.43;;;10.03;;
9304;SDS011;4690;52.422;13.486;2023-03-11T08:13:59;10.23;;;9.23;;
9304;SDS011;4690;52.422;13.486;2023-03-11T08:16:26;11.17;;;9.43;;
9304;SDS011;4690;52.422;13.486;2023-03-11T08:18:52;10.17;;;9.07;;
9304;SDS011;4690;52.422;13.486;2023-03-11T08:21:19;12.23;;;9.73;;
9304;SDS011;4690;52.422;13.486;2023-03-11T08:23:49;10.50;;;9.50;;
9304;SDS011;4690;52.422;13.486;2023-03-11T08:26:17;10.27;;;8.87;;
9304;SDS011;4690;52.422;13.486;2023-03-11T08:28:48;10.17;;;8.97;;
9304;SDS011;4690;52.422;13.486;2023-03-11T08:31:15;10.20;;;8.17;;
9304;SDS011;4690;52.422;13.486;2023-03-11T08:33:48;10.17;;;7.93;;
9304;SDS011;4690;52.422;13.486;2023-03-11T08:36:16;10.10;;;7.83;;
9304;SDS011;4690;52.422;13.486;2023-03-11T08:38:43;9.23;;;7.80;;
9304;SDS011;4690;52.422;13.486;2023-03-11T08:41:09;10.97;;;7.37;;
9304;SDS011;4690;52.422;13.486;2023-03-11T08:43:36;10.77;;;7.80;;
9304;SDS011;4690;52.422;13.486;2023-03-11T08:46:03;7.97;;;7.00;;
9304;SDS011;4690;52.422;13.486;2023-03-11T08:48:30;7.73;;;6.93;;
9304;SDS011;4690;52.422;13.486;2023-03-11T08:50:57;7.80;;;6.87;;
9304;SDS011;4690;52.422;13.486;2023-03-11T08:53:24;7.70;;;6.53;;
9304;SDS011;4690;52.422;13.486;2023-03-11T08:55:50;7.50;;;6.30;;
9304;SDS011;4690;52.422;13.486;2023-03-11T08:58:17;8.23;;;6.13;;
9304;SDS011;4690;52.422;13.486;2023-03-11T09:00:44;7.43;;;5.90;;
9304;SDS011;4690;52.422;13.486;2023-03-11T09:03:11;8.83;;;6.97;;
9304;SDS011;4690;52.422;13.486;2023-03-11T09:05:37;8.33;;;7.30;;
9304;SDS011;4690;52.422;13.486;2023-03-11T09:08:03;8.57;;;7.13;;
9304;SDS011;4690;52.422;13.486;2023-03-11T09:10:29;9.13;;;6.70;;
9304;SDS011;4690;52.422;13.486;2023-03-11T09:12:55;7.07;;;6.37;;
9304;SDS011;4690;52.422;13.486;2023-03-11T09:15:21;7.77;;;6.50;;
9304;SDS011;4690;52.422;13.486;2023-03-11T09:17:48;7.40;;;5.93;;
9304;SDS011;4690;52.422;13.486;2023-03-11T09:20:13;6.37;;;5.77;;
9304;SDS011;4690;52.422;13.486;2023-03-11T09:22:40;8.27;;;5.87;;
9304;SDS011;4690;52.422;13.486;2023-03-11T09:25:06;7.30;;;5.93;;
9304;SDS011;4690;52.422;13.486;2023-03-11T09:27:32;8.40;;;6.57;;
9304;SDS011;4690;52.422;13.486;2023-03-11T09:29:58;7.43;;;6.37;;
9304;SDS011;4690;52.422;13.486;2023-03-11T09:32:23;6.73;;;6.10;;
9304;SDS011;4690;52.422;13.486;2023-03-11T09:34:49;7.00;;;6.30;;
9304;SDS011;4690;52.422;13.486;2023-03-11T09:37:15;7.63;;;6.10;;
9304;SDS011;4690;52.422;13.486;2023-03-11T09:39:40;6.90;;;6.30;;
9304;SDS011;4690;52.422;13.486;2023-03-11T09:42:12;7.23;;;6.27;;
9304;SDS011;4690;52.422;13.486;2023-03-11T09:50:46;8.00;;;6.53;;
9304;SDS011;4690;52.422;13.486;2023-03-11T09:56:14;8.00;;;7.20;;
9304;SDS011;4690;52.422;13.486;2023-03-11T09:58:47;7.77;;;6.93;;
9304;SDS011;4690;52.422;13.486;2023-03-11T10:03:56;7.60;;;6.90;;
9304;SDS011;4690;52.422;13.486;2023-03-11T10:06:28;7.57;;;6.67;;
9304;SDS011;4690;52.422;13.486;2023-03-11T10:18:31;13.07;;;8.63;;
9304;SDS011;4690;52.422;13.486;2023-03-11T10:24:18;9.83;;;8.83;;
9304;SDS011;4690;52.422;13.486;2023-03-11T10:27:05;10.27;;;9.17;;
9304;SDS011;4690;52.422;13.486;2023-03-11T10:32:43;8.80;;;7.97;;
9304;SDS011;4690;52.422;13.486;2023-03-11T10:35:17;9.00;;;8.10;;
9304;SDS011;4690;52.422;13.486;2023-03-11T10:40:25;9.33;;;8.43;;
9304;SDS011;4690;52.422;13.486;2023-03-11T10:43:02;9.07;;;8.17;;
9304;SDS011;4690;52.422;13.486;2023-03-11T10:45:38;9.43;;;8.63;;
9304;SDS011;4690;52.422;13.486;2023-03-11T10:48:09;9.20;;;8.27;;
9304;SDS011;4690;52.422;13.486;2023-03-11T10:50:44;9.80;;;8.90;;
9304;SDS011;4690;52.422;13.486;2023-03-11T10:53:42;9.93;;;8.97;;
9304;SDS011;4690;52.422;13.486;2023-03-11T10:56:29;9.63;;;8.77;;
9304;SDS011;4690;52.422;13.486;2023-03-11T10:59:02;10.00;;;9.00;;
9304;SDS011;4690;52.422;13.486;2023-03-11T11:01:42;9.33;;;8.53;;
9304;SDS011;4690;52.422;13.486;2023-03-11T11:07:44;10.57;;;9.30;;
9304;SDS011;4690;52.422;13.486;2023-03-11T11:15:24;9.67;;;8.77;;
9304;SDS011;4690;52.422;13.486;2023-03-11T11:18:00;10.57;;;9.57;;
9304;SDS011;4690;52.422;13.486;2023-03-11T11:20:53;9.97;;;9.07;;
9304;SDS011;4690;52.422;13.486;2023-03-11T11:26:24;10.60;;;9.70;;
9304;SDS011;4690;52.422;13.486;2023-03-11T11:29:04;10.90;;;9.90;;
9304;SDS011;4690;52.422;13.486;2023-03-11T11:31:33;10.90;;;9.90;;
9304;SDS011;4690;52.422;13.486;2023-03-11T11:34:29;10.67;;;9.63;;
9304;SDS011;4690;52.422;13.486;2023-03-11T11:36:59;13.03;;;10.53;;
9304;SDS011;4690;52.422;13.486;2023-03-11T11:39:35;10.50;;;9.47;;
9304;SDS011;4690;52.422;13.486;2023-03-11T11:42:15;11.50;;;10.40;;
9304;SDS011;4690;52.422;13.486;2023-03-11T11:44:43;11.23;;;10.10;;
9304;SDS011;4690;52.422;13.486;2023-03-11T11:47:23;11.17;;;9.93;;
9304;SDS011;4690;52.422;13.486;2023-03-11T11:49:58;10.17;;;9.17;;
9304;SDS011;4690;52.422;13.486;2023-03-11T11:52:36;10.73;;;9.67;;
9304;SDS011;4690;52.422;13.486;2023-03-11T11:55:19;11.53;;;10.43;;
9304;SDS011;4690;52.422;13.486;2023-03-11T11:57:51;11.67;;;10.47;;
9304;SDS011;4690;52.422;13.486;2023-03-11T12:00:21;12.57;;;11.30;;
9304;SDS011;4690;52.422;13.486;2023-03-11T12:05:50;12.53;;;11.23;;
9304;SDS011;4690;52.422;13.486;2023-03-11T12:08:32;11.93;;;10.60;;
9304;SDS011;4690;52.422;13.486;2023-03-11T12:11:39;10.13;;;9.20;;
9304;SDS011;4690;52.422;13.486;2023-03-11T12:16:54;10.50;;;9.50;;
9304;SDS011;4690;52.422;13.486;2023-03-11T12:28:23;10.73;;;9.33;;
9304;SDS011;4690;52.422;13.486;2023-03-11T12:31:01;10.30;;;9.40;;
9304;SDS011;4690;52.422;13.486;2023-03-11T12:33:40;9.03;;;8.20;;
9304;SDS011;4690;52.422;13.486;2023-03-11T12:39:18;9.93;;;8.27;;
9304;SDS011;4690;52.422;13.486;2023-03-11T12:42:13;9.57;;;8.53;;
9304;SDS011;4690;52.422;13.486;2023-03-11T12:44:34;9.43;;;8.53;;
9304;SDS011;4690;52.422;13.486;2023-03-11T12:49:40;9.17;;;8.27;;
9304;SDS011;4690;52.422;13.486;2023-03-11T12:54:42;9.73;;;8.73;;
9304;SDS011;4690;52.422;13.486;2023-03-11T13:00:00;10.43;;;9.47;;
9304;SDS011;4690;52.422;13.486;2023-03-11T13:08:59;10.27;;;9.27;;
9304;SDS011;4690;52.422;13.486;2023-03-11T13:16:40;7.73;;;7.10;;
9304;SDS011;4690;52.422;13.486;2023-03-11T13:21:56;7.40;;;6.70;;
9304;SDS011;4690;52.422;13.486;2023-03-11T13:29:50;8.63;;;7.80;;
9304;SDS011;4690;52.422;13.486;2023-03-11T13:32:30;8.33;;;7.53;;
9304;SDS011;4690;52.422;13.486;2023-03-11T13:41:30;8.40;;;7.47;;
9304;SDS011;4690;52.422;13.486;2023-03-11T13:44:04;7.20;;;6.60;;
9304;SDS011;4690;52.422;13.486;2023-03-11T13:47:04;7.40;;;6.70;;
9304;SDS011;4690;52.422;13.486;2023-03-11T13:49:51;7.13;;;6.47;;
9304;SDS011;4690;52.422;13.486;2023-03-11T13:52:42;6.47;;;5.87;;
9304;SDS011;4690;52.422;13.486;2023-03-11T13:55:20;8.20;;;6.07;;
9304;SDS011;4690;52.422;13.486;2023-03-11T13:57:59;6.70;;;5.97;;
9304;SDS011;4690;52.422;13.486;2023-03-11T14:00:29;6.10;;;5.50;;
9304;SDS011;4690;52.422;13.486;2023-03-11T14:02:56;6.37;;;5.77;;
9304;SDS011;4690;52.422;13.486;2023-03-11T14:05:38;6.40;;;5.73;;
9304;SDS011;4690;52.422;13.486;2023-03-11T14:08:21;5.90;;;5.30;;
9304;SDS011;4690;52.422;13.486;2023-03-11T14:13:27;5.63;;;5.13;;
9304;SDS011;4690;52.422;13.486;2023-03-11T14:16:03;6.10;;;4.77;;
9304;SDS011;4690;52.422;13.486;2023-03-11T14:18:43;5.50;;;5.00;;
9304;SDS011;4690;52.422;13.486;2023-03-11T14:21:13;5.67;;;5.10;;
9304;SDS011;4690;52.422;13.486;2023-03-11T14:23:48;5.43;;;4.80;;
9304;SDS011;4690;52.422;13.486;2023-03-11T14:26:25;5.67;;;4.53;;
9304;SDS011;4690;52.422;13.486;2023-03-11T14:28:58;5.87;;;4.90;;
9304;SDS011;4690;52.422;13.486;2023-03-11T14:31:40;5.03;;;4.40;;
9304;SDS011;4690;52.422;13.486;2023-03-11T14:34:21;6.23;;;4.97;;
9304;SDS011;4690;52.422;13.486;2023-03-11T14:36:55;5.57;;;5.07;;
9304;SDS011;4690;52.422;13.486;2023-03-11T14:39:34;4.90;;;4.50;;
9304;SDS011;4690;52.422;13.486;2023-03-11T14:42:04;5.43;;;4.93;;
9304;SDS011;4690;52.422;13.486;2023-03-11T14:44:35;6.17;;;4.50;;
9304;SDS011;4690;52.422;13.486;2023-03-11T14:47:15;5.27;;;4.77;;
9304;SDS011;4690;52.422;13.486;2023-03-11T14:49:59;6.00;;;4.53;;
9304;SDS011;4690;52.422;13.486;2023-03-11T14:52:35;4.93;;;4.53;;
9304;SDS011;4690;52.422;13.486;2023-03-11T14:55:15;6.83;;;5.57;;
9304;SDS011;4690;52.422;13.486;2023-03-11T15:00:21;4.57;;;4.17;;
9304;SDS011;4690;52.422;13.486;2023-03-11T15:05:51;5.70;;;5.20;;
9304;SDS011;4690;52.422;13.486;2023-03-11T15:08:41;5.60;;;5.00;;
9304;SDS011;4690;52.422;13.486;2023-03-11T15:13:39;5.83;;;4.70;;
9304;SDS011;4690;52.422;13.486;2023-03-11T15:16:21;4.53;;;4.13;;
9304;SDS011;4690;52.422;13.486;2023-03-11T15:19:22;6.00;;;4.27;;
9304;SDS011;4690;52.422;13.486;2023-03-11T15:22:00;4.30;;;3.90;;
9304;SDS011;4690;52.422;13.486;2023-03-11T15:25:13;4.27;;;3.77;;
9304;SDS011;4690;52.422;13.486;2023-03-11T15:27:43;4.00;;;3.60;;
9304;SDS011;4690;52.422;13.486;2023-03-11T15:30:17;4.20;;;3.80;;
9304;SDS011;4690;52.422;13.486;2023-03-11T15:32:45;4.40;;;4.00;;
9304;SDS011;4690;52.422;13.486;2023-03-11T15:43:28;3.80;;;3.17;;
9304;SDS011;4690;52.422;13.486;2023-03-11T15:45:59;4.00;;;3.60;;
9304;SDS011;4690;52.422;13.486;2023-03-11T15:48:27;3.43;;;3.13;;
9304;SDS011;4690;52.422;13.486;2023-03-11T15:50:56;3.90;;;3.60;;
9304;SDS011;4690;52.422;13.486;2023-03-11T15:53:23;4.63;;;3.30;;
9304;SDS011;4690;52.422;13.486;2023-03-11T15:55:52;3.73;;;3.23;;
9304;SDS011;4690;52.422;13.486;2023-03-11T15:58:22;3.77;;;3.30;;
9304;SDS011;4690;52.422;13.486;2023-03-11T16:00:52;3.67;;;3.20;;
9304;SDS011;4690;52.422;13.486;2023-03-11T16:03:21;4.30;;;3.90;;
9304;SDS011;4690;52.422;13.486;2023-03-11T16:05:47;4.20;;;3.80;;
9304;SDS011;4690;52.422;13.486;2023-03-11T16:08:13;4.30;;;3.90;;
9304;SDS011;4690;52.422;13.486;2023-03-11T16:10:40;4.10;;;3.70;;
9304;SDS011;4690;52.422;13.486;2023-03-11T16:13:11;3.80;;;3.37;;
9304;SDS011;4690;52.422;13.486;2023-03-11T16:15:39;4.10;;;3.70;;
9304;SDS011;4690;52.422;13.486;2023-03-11T16:18:06;3.60;;;3.30;;
9304;SDS011;4690;52.422;13.486;2023-03-11T16:20:44;3.60;;;3.30;;
9304;SDS011;4690;52.422;13.486;2023-03-11T16:23:18;3.73;;;3.33;;
9304;SDS011;4690;52.422;13.486;2023-03-11T16:26:00;3.87;;;3.33;;
9304;SDS011;4690;52.422;13.486;2023-03-11T16:28:29;3.47;;;3.17;;
9304;SDS011;4690;52.422;13.486;2023-03-11T16:30:55;4.80;;;3.67;;
9304;SDS011;4690;52.422;13.486;2023-03-11T16:33:21;4.27;;;3.10;;
9304;SDS011;4690;52.422;13.486;2023-03-11T16:35:46;4.80;;;3.23;;
9304;SDS011;4690;52.422;13.486;2023-03-11T16:38:12;3.43;;;3.10;;
9304;SDS011;4690;52.422;13.486;2023-03-11T16:40:41;4.03;;;3.03;;
9304;SDS011;4690;52.422;13.486;2023-03-11T16:43:08;3.27;;;2.97;;
9304;SDS011;4690;52.422;13.486;2023-03-11T16:45:37;3.50;;;3.20;;
9304;SDS011;4690;52.422;13.486;2023-03-11T16:48:03;3.93;;;3.20;;
9304;SDS011;4690;52.422;13.486;2023-03-11T16:50:30;5.13;;;3.27;;
9304;SDS011;4690;52.422;13.486;2023-03-11T16:52:56;3.90;;;2.97;;
9304;SDS011;4690;52.422;13.486;2023-03-11T16:55:24;3.93;;;3.57;;
9304;SDS011;4690;52.422;13.486;2023-03-11T16:57:50;3.53;;;3.00;;
9304;SDS011;4690;52.422;13.486;2023-03-11T17:00:18;5.70;;;3.53;;
9304;SDS011;4690;52.422;13.486;2023-03-11T17:02:44;3.57;;;3.27;;
9304;SDS011;4690;52.422;13.486;2023-03-11T17:05:10;4.00;;;3.57;;
9304;SDS011;4690;52.422;13.486;2023-03-11T17:07:38;4.43;;;3.20;;
9304;SDS011;4690;52.422;13.486;2023-03-11T17:10:04;3.70;;;3.30;;